sensor_id;sensor_type;location;lat;lon;timestamp;pressure;altitude;pressure_sealevel;temperature
64947;BMP280;51469;52.150;4.682;2024-02-28T00:01:32;102185.53;;;11.79
64947;BMP280;51469;52.150;4.682;2024-02-28T00:03:57;102188.53;;;11.74
64947;BMP280;51469;52.150;4.682;2024-02-28T00:06:23;102179.75;;;11.68
64947;BMP280;51469;52.150;4.682;2024-02-28T00:08:48;102170.84;;;11.59
64947;BMP280;51469;52.150;4.682;2024-02-28T00:11:16;102181.00;;;11.59
64947;BMP280;51469;52.150;4.682;2024-02-28T00:13:41;102183.75;;;11.59
64947;BMP280;51469;52.150;4.682;2024-02-28T00:16:06;102182.63;;;11.60
64947;BMP280;51469;52.150;4.682;2024-02-28T00:18:32;102166.25;;;11.63
64947;BMP280;51469;52.150;4.682;2024-02-28T00:20:57;102172.50;;;11.64
64947;BMP280;51469;52.150;4.682;2024-02-28T00:23:24;102164.72;;;11.66
64947;BMP280;51469;52.150;4.682;2024-02-28T00:25:49;102170.22;;;11.66
64947;BMP280;51469;52.150;4.682;2024-02-28T00:28:15;102171.03;;;11.66
64947;BMP280;51469;52.150;4.682;2024-02-28T00:30:40;102163.81;;;11.62
64947;BMP280;51469;52.150;4.682;2024-02-28T00:33:06;102161.06;;;11.62
64947;BMP280;51469;52.150;4.682;2024-02-28T00:35:32;102159.03;;;11.59
64947;BMP280;51469;52.150;4.682;2024-02-28T00:37:58;102153.34;;;11.52
64947;BMP280;51469;52.150;4.682;2024-02-28T00:40:24;102166.84;;;11.57
64947;BMP280;51469;52.150;4.682;2024-02-28T00:42:50;102167.53;;;11.54
64947;BMP280;51469;52.150;4.682;2024-02-28T00:45:16;102155.75;;;11.53
64947;BMP280;51469;52.150;4.682;2024-02-28T00:47:41;102160.31;;;11.49
64947;BMP280;51469;52.150;4.682;2024-02-28T00:50:07;102163.88;;;11.50
64947;BMP280;51469;52.150;4.682;2024-02-28T00:52:33;102169.84;;;11.52
64947;BMP280;51469;52.150;4.682;2024-02-28T00:54:58;102173.03;;;11.54
64947;BMP280;51469;52.150;4.682;2024-02-28T00:57:24;102173.03;;;11.54
64947;BMP280;51469;52.150;4.682;2024-02-28T00:59:50;102182.88;;;11.55
64947;BMP280;51469;52.150;4.682;2024-02-28T01:02:15;102185.63;;;11.55
64947;BMP280;51469;52.150;4.682;2024-02-28T01:04:41;102176.22;;;11.56
64947;BMP280;51469;52.150;4.682;2024-02-28T01:07:06;102184.78;;;11.66
64947;BMP280;51469;52.150;4.682;2024-02-28T01:09:32;102181.78;;;11.71
64947;BMP280;51469;52.150;4.682;2024-02-28T01:11:57;102176.03;;;11.76
64947;BMP280;51469;52.150;4.682;2024-02-28T01:14:22;102180.13;;;11.82
64947;BMP280;51469;52.150;4.682;2024-02-28T01:16:48;102171.72;;;11.91
64947;BMP280;51469;52.150;4.682;2024-02-28T01:19:15;102164.69;;;11.93
64947;BMP280;51469;52.150;4.682;2024-02-28T01:21:41;102169.09;;;12.10
64947;BMP280;51469;52.150;4.682;2024-02-28T01:24:06;102162.19;;;12.16
64947;BMP280;51469;52.150;4.682;2024-02-28T01:26:31;102160.31;;;12.20
64947;BMP280;51469;52.150;4.682;2024-02-28T01:28:57;102168.31;;;12.25
64947;BMP280;51469;52.150;4.682;2024-02-28T01:31:22;102161.41;;;12.31
64947;BMP280;51469;52.150;4.682;2024-02-28T01:33:47;102157.94;;;12.34
64947;BMP280;51469;52.150;4.682;2024-02-28T01:36:13;102153.50;;;12.45
64947;BMP280;51469;52.150;4.682;2024-02-28T01:38:38;102153.91;;;12.47
64947;BMP280;51469;52.150;4.682;2024-02-28T01:41:04;102157.38;;;12.59
64947;BMP280;51469;52.150;4.682;2024-02-28T01:43:31;102158.44;;;12.55
64947;BMP280;51469;52.150;4.682;2024-02-28T01:45:57;102155.25;;;12.53
64947;BMP280;51469;52.150;4.682;2024-02-28T01:48:24;102158.63;;;12.62
64947;BMP280;51469;52.150;4.682;2024-02-28T01:50:50;102153.13;;;12.62
64947;BMP280;51469;52.150;4.682;2024-02-28T01:53:15;102154.78;;;12.66
64947;BMP280;51469;52.150;4.682;2024-02-28T01:55:41;102150.22;;;12.74
64947;BMP280;51469;52.150;4.682;2024-02-28T01:58:07;102159.22;;;12.71
64947;BMP280;51469;52.150;4.682;2024-02-28T02:00:35;102159.22;;;12.71
64947;BMP280;51469;52.150;4.682;2024-02-28T02:03:02;102160.22;;;12.63
64947;BMP280;51469;52.150;4.682;2024-02-28T02:05:28;102152.50;;;12.68
64947;BMP280;51469;52.150;4.682;2024-02-28T02:07:54;102155.75;;;12.74
64947;BMP280;51469;52.150;4.682;2024-02-28T02:10:20;102149.94;;;12.79
64947;BMP280;51469;52.150;4.682;2024-02-28T02:12:46;102152.59;;;12.72
64947;BMP280;51469;52.150;4.682;2024-02-28T02:15:11;102158.22;;;12.79
64947;BMP280;51469;52.150;4.682;2024-02-28T02:17:37;102153.44;;;12.76
64947;BMP280;51469;52.150;4.682;2024-02-28T02:20:02;102146.66;;;12.89
64947;BMP280;51469;52.150;4.682;2024-02-28T02:22:37;102147.19;;;12.79
64947;BMP280;51469;52.150;4.682;2024-02-28T02:25:06;102157.00;;;12.92
64947;BMP280;51469;52.150;4.682;2024-02-28T02:27:31;102150.03;;;12.98
64947;BMP280;51469;52.150;4.682;2024-02-28T02:29:56;102151.69;;;13.02
64947;BMP280;51469;52.150;4.682;2024-02-28T02:32:22;102157.28;;;13.06
64947;BMP280;51469;52.150;4.682;2024-02-28T02:34:47;102154.09;;;13.04
64947;BMP280;51469;52.150;4.682;2024-02-28T02:37:12;102158.72;;;13.00
64947;BMP280;51469;52.150;4.682;2024-02-28T02:39:38;102154.72;;;12.63
64947;BMP280;51469;52.150;4.682;2024-02-28T02:42:03;102152.34;;;12.96
64947;BMP280;51469;52.150;4.682;2024-02-28T02:44:29;102156.41;;;13.02
64947;BMP280;51469;52.150;4.682;2024-02-28T02:46:54;102139.88;;;13.02
64947;BMP280;51469;52.150;4.682;2024-02-28T02:49:20;102140.03;;;13.09
64947;BMP280;51469;52.150;4.682;2024-02-28T02:51:45;102131.00;;;13.12
64947;BMP280;51469;52.150;4.682;2024-02-28T02:54:10;102141.66;;;13.10
64947;BMP280;51469;52.150;4.682;2024-02-28T02:56:36;102135.38;;;13.13
64947;BMP280;51469;52.150;4.682;2024-02-28T02:59:02;102131.81;;;13.12
64947;BMP280;51469;52.150;4.682;2024-02-28T03:01:27;102138.16;;;13.13
64947;BMP280;51469;52.150;4.682;2024-02-28T03:03:53;102140.91;;;13.13
64947;BMP280;51469;52.150;4.682;2024-02-28T03:06:18;102139.88;;;13.02
64947;BMP280;51469;52.150;4.682;2024-02-28T03:08:43;102137.97;;;13.06
64947;BMP280;51469;52.150;4.682;2024-02-28T03:11:09;102127.13;;;13.13
64947;BMP280;51469;52.150;4.682;2024-02-28T03:13:34;102130.00;;;13.01
64947;BMP280;51469;52.150;4.682;2024-02-28T03:16:00;102124.94;;;13.03
64947;BMP280;51469;52.150;4.682;2024-02-28T03:18:25;102139.75;;;13.14
64947;BMP280;51469;52.150;4.682;2024-02-28T03:20:50;102128.25;;;13.12
64947;BMP280;51469;52.150;4.682;2024-02-28T03:23:16;102136.81;;;13.07
64947;BMP280;51469;52.150;4.682;2024-02-28T03:25:41;102137.72;;;13.11
64947;BMP280;51469;52.150;4.682;2024-02-28T03:28:06;102136.69;;;13.00
64947;BMP280;51469;52.150;4.682;2024-02-28T03:30:32;102132.56;;;13.09
64947;BMP280;51469;52.150;4.682;2024-02-28T03:32:57;102132.28;;;13.14
64947;BMP280;51469;52.150;4.682;2024-02-28T03:35:22;102124.72;;;13.11
64947;BMP280;51469;52.150;4.682;2024-02-28T03:37:48;102120.28;;;13.07
64947;BMP280;51469;52.150;4.682;2024-02-28T03:40:13;102112.94;;;13.11
64947;BMP280;51469;52.150;4.682;2024-02-28T03:42:40;102113.13;;;13.02
64947;BMP280;51469;52.150;4.682;2024-02-28T03:45:05;102118.69;;;13.06
64947;BMP280;51469;52.150;4.682;2024-02-28T03:47:31;102121.03;;;13.04
64947;BMP280;51469;52.150;4.682;2024-02-28T03:49:56;102121.25;;;13.14
64947;BMP280;51469;52.150;4.682;2024-02-28T03:52:23;102121.91;;;13.08
64947;BMP280;51469;52.150;4.682;2024-02-28T03:54:48;102124.84;;;12.99
64947;BMP280;51469;52.150;4.682;2024-02-28T03:57:13;102123.50;;;13.09
64947;BMP280;51469;52.150;4.682;2024-02-28T03:59:40;102126.31;;;13.12
64947;BMP280;51469;52.150;4.682;2024-02-28T04:02:06;102137.97;;;13.25
64947;BMP280;51469;52.150;4.682;2024-02-28T04:04:31;102132.63;;;13.32
64947;BMP280;51469;52.150;4.682;2024-02-28T04:06:57;102137.44;;;13.35
64947;BMP280;51469;52.150;4.682;2024-02-28T04:09:22;102134.84;;;13.23
64947;BMP280;51469;52.150;4.682;2024-02-28T04:11:47;102137.28;;;13.28
64947;BMP280;51469;52.150;4.682;2024-02-28T04:14:13;102139.84;;;13.36
64947;BMP280;51469;52.150;4.682;2024-02-28T04:16:42;102133.09;;;13.34
64947;BMP280;51469;52.150;4.682;2024-02-28T04:19:11;102130.88;;;13.24
64947;BMP280;51469;52.150;4.682;2024-02-28T04:21:37;102131.91;;;13.35
64947;BMP280;51469;52.150;4.682;2024-02-28T04:24:04;102134.38;;;13.40
64947;BMP280;51469;52.150;4.682;2024-02-28T04:26:29;102144.81;;;13.50
64947;BMP280;51469;52.150;4.682;2024-02-28T04:28:55;102147.56;;;13.50
64947;BMP280;51469;52.150;4.682;2024-02-28T04:31:21;102141.78;;;13.55
64947;BMP280;51469;52.150;4.682;2024-02-28T04:33:46;102153.38;;;13.45
64947;BMP280;51469;52.150;4.682;2024-02-28T04:36:12;102147.28;;;13.55
64947;BMP280;51469;52.150;4.682;2024-02-28T04:38:37;102148.06;;;13.55
64947;BMP280;51469;52.150;4.682;2024-02-28T04:41:02;102152.16;;;13.61
64947;BMP280;51469;52.150;4.682;2024-02-28T04:43:28;102154.50;;;13.63
64947;BMP280;51469;52.150;4.682;2024-02-28T04:45:53;102160.78;;;13.60
64947;BMP280;51469;52.150;4.682;2024-02-28T04:48:19;102160.34;;;13.39
64947;BMP280;51469;52.150;4.682;2024-02-28T04:50:44;102156.44;;;13.40
64947;BMP280;51469;52.150;4.682;2024-02-28T04:53:09;102158.31;;;13.55
64947;BMP280;51469;52.150;4.682;2024-02-28T04:55:35;102159.91;;;13.56
64947;BMP280;51469;52.150;4.682;2024-02-28T04:58:00;102155.69;;;13.62
64947;BMP280;51469;52.150;4.682;2024-02-28T05:00:26;102162.66;;;13.56
64947;BMP280;51469;52.150;4.682;2024-02-28T05:02:51;102154.13;;;13.61
64947;BMP280;51469;52.150;4.682;2024-02-28T05:05:17;102157.72;;;13.65
64947;BMP280;51469;52.150;4.682;2024-02-28T05:07:42;102155.78;;;13.65
64947;BMP280;51469;52.150;4.682;2024-02-28T05:10:08;102154.50;;;13.63
64947;BMP280;51469;52.150;4.682;2024-02-28T05:12:33;102148.03;;;13.74
64947;BMP280;51469;52.150;4.682;2024-02-28T05:14:59;102152.34;;;13.72
64947;BMP280;51469;52.150;4.682;2024-02-28T05:17:24;102154.81;;;13.77
64947;BMP280;51469;52.150;4.682;2024-02-28T05:19:50;102159.16;;;13.78
64947;BMP280;51469;52.150;4.682;2024-02-28T05:22:15;102163.09;;;13.77
64947;BMP280;51469;52.150;4.682;2024-02-28T05:24:40;102154.44;;;13.78
64947;BMP280;51469;52.150;4.682;2024-02-28T05:27:09;102168.16;;;13.75
64947;BMP280;51469;52.150;4.682;2024-02-28T05:29:34;102168.00;;;13.68
64947;BMP280;51469;52.150;4.682;2024-02-28T05:31:59;102155.84;;;13.69
64947;BMP280;51469;52.150;4.682;2024-02-28T05:34:25;102157.25;;;13.82
64947;BMP280;51469;52.150;4.682;2024-02-28T05:36:50;102155.13;;;13.72
64947;BMP280;51469;52.150;4.682;2024-02-28T05:39:15;102166.78;;;13.84
64947;BMP280;51469;52.150;4.682;2024-02-28T05:41:41;102164.59;;;13.74
64947;BMP280;51469;52.150;4.682;2024-02-28T05:44:06;102156.97;;;13.68
64947;BMP280;51469;52.150;4.682;2024-02-28T05:46:31;102159.81;;;13.71
64947;BMP280;51469;52.150;4.682;2024-02-28T05:48:57;102157.94;;;13.75
64947;BMP280;51469;52.150;4.682;2024-02-28T05:51:22;102161.81;;;13.71
64947;BMP280;51469;52.150;4.682;2024-02-28T05:53:48;102157.72;;;13.65
64947;BMP280;51469;52.150;4.682;2024-02-28T05:56:13;102170.50;;;13.73
64947;BMP280;51469;52.150;4.682;2024-02-28T05:58:48;102160.94;;;13.67
64947;BMP280;51469;52.150;4.682;2024-02-28T06:01:17;102160.47;;;13.84
64947;BMP280;51469;52.150;4.682;2024-02-28T06:03:42;102159.88;;;13.75
64947;BMP280;51469;52.150;4.682;2024-02-28T06:06:10;102164.38;;;13.83
64947;BMP280;51469;52.150;4.682;2024-02-28T06:08:38;102162.72;;;13.78
64947;BMP280;51469;52.150;4.682;2024-02-28T06:11:04;102171.38;;;13.77
64947;BMP280;51469;52.150;4.682;2024-02-28T06:13:30;102169.06;;;13.79
64947;BMP280;51469;52.150;4.682;2024-02-28T06:15:56;102163.38;;;13.72
64947;BMP280;51469;52.150;4.682;2024-02-28T06:18:22;102175.28;;;13.76
64947;BMP280;51469;52.150;4.682;2024-02-28T06:20:55;102183.72;;;13.64
64947;BMP280;51469;52.150;4.682;2024-02-28T06:23:22;102177.47;;;13.67
64947;BMP280;51469;52.150;4.682;2024-02-28T06:25:47;102175.16;;;13.69
64947;BMP280;51469;52.150;4.682;2024-02-28T06:28:13;102185.31;;;13.65
64947;BMP280;51469;52.150;4.682;2024-02-28T06:30:38;102188.75;;;13.81
64947;BMP280;51469;52.150;4.682;2024-02-28T06:33:04;102190.00;;;13.64
64947;BMP280;51469;52.150;4.682;2024-02-28T06:35:30;102188.94;;;13.69
64947;BMP280;51469;52.150;4.682;2024-02-28T06:37:55;102194.09;;;13.70
64947;BMP280;51469;52.150;4.682;2024-02-28T06:40:20;102202.88;;;13.76
64947;BMP280;51469;52.150;4.682;2024-02-28T06:42:46;102208.22;;;13.50
64947;BMP280;51469;52.150;4.682;2024-02-28T06:45:11;102215.47;;;13.58
64947;BMP280;51469;52.150;4.682;2024-02-28T06:47:37;102214.19;;;13.52
64947;BMP280;51469;52.150;4.682;2024-02-28T06:50:03;102206.63;;;13.68
64947;BMP280;51469;52.150;4.682;2024-02-28T06:52:29;102205.22;;;13.74
64947;BMP280;51469;52.150;4.682;2024-02-28T06:54:54;102211.63;;;13.81
64947;BMP280;51469;52.150;4.682;2024-02-28T06:57:20;102220.94;;;13.73
64947;BMP280;51469;52.150;4.682;2024-02-28T06:59:45;102212.13;;;13.68
64947;BMP280;51469;52.150;4.682;2024-02-28T07:02:10;102217.25;;;13.85
64947;BMP280;51469;52.150;4.682;2024-02-28T07:04:38;102207.84;;;13.89
64947;BMP280;51469;52.150;4.682;2024-02-28T07:07:03;102209.16;;;13.76
64947;BMP280;51469;52.150;4.682;2024-02-28T07:09:28;102223.94;;;13.84
64947;BMP280;51469;52.150;4.682;2024-02-28T07:11:56;102221.84;;;13.81
64947;BMP280;51469;52.150;4.682;2024-02-28T07:14:21;102221.94;;;13.84
64947;BMP280;51469;52.150;4.682;2024-02-28T07:16:47;102231.53;;;13.90
64947;BMP280;51469;52.150;4.682;2024-02-28T07:19:12;102234.38;;;13.94
64947;BMP280;51469;52.150;4.682;2024-02-28T07:21:37;102231.25;;;13.76
64947;BMP280;51469;52.150;4.682;2024-02-28T07:24:03;102233.78;;;13.85
64947;BMP280;51469;52.150;4.682;2024-02-28T07:26:30;102230.88;;;13.78
64947;BMP280;51469;52.150;4.682;2024-02-28T07:28:55;102232.25;;;13.87
64947;BMP280;51469;52.150;4.682;2024-02-28T07:31:21;102233.94;;;13.92
64947;BMP280;51469;52.150;4.682;2024-02-28T07:33:47;102240.78;;;13.79
64947;BMP280;51469;52.150;4.682;2024-02-28T07:36:13;102236.63;;;13.88
64947;BMP280;51469;52.150;4.682;2024-02-28T07:38:38;102239.03;;;13.71
64947;BMP280;51469;52.150;4.682;2024-02-28T07:41:04;102240.03;;;13.82
64947;BMP280;51469;52.150;4.682;2024-02-28T07:43:30;102253.53;;;13.87
64947;BMP280;51469;52.150;4.682;2024-02-28T07:45:58;102244.06;;;13.88
64947;BMP280;51469;52.150;4.682;2024-02-28T07:48:23;102241.25;;;13.84
64947;BMP280;51469;52.150;4.682;2024-02-28T07:50:49;102249.69;;;13.91
64947;BMP280;51469;52.150;4.682;2024-02-28T07:53:14;102256.72;;;13.89
64947;BMP280;51469;52.150;4.682;2024-02-28T07:55:40;102261.22;;;13.78
64947;BMP280;51469;52.150;4.682;2024-02-28T07:58:08;102263.09;;;13.93
64947;BMP280;51469;52.150;4.682;2024-02-28T08:00:35;102259.50;;;13.89
64947;BMP280;51469;52.150;4.682;2024-02-28T08:03:00;102273.47;;;13.99
64947;BMP280;51469;52.150;4.682;2024-02-28T08:05:25;102268.63;;;13.93
64947;BMP280;51469;52.150;4.682;2024-02-28T08:07:51;102274.59;;;13.95
64947;BMP280;51469;52.150;4.682;2024-02-28T08:10:17;102275.03;;;13.97
64947;BMP280;51469;52.150;4.682;2024-02-28T08:12:42;102277.19;;;13.88
64947;BMP280;51469;52.150;4.682;2024-02-28T08:15:08;102274.22;;;13.96
64947;BMP280;51469;52.150;4.682;2024-02-28T08:17:33;102280.75;;;14.07
64947;BMP280;51469;52.150;4.682;2024-02-28T08:19:59;102279.78;;;14.19
64947;BMP280;51469;52.150;4.682;2024-02-28T08:22:24;102274.63;;;14.17
64947;BMP280;51469;52.150;4.682;2024-02-28T08:24:53;102292.06;;;14.21
64947;BMP280;51469;52.150;4.682;2024-02-28T08:27:18;102290.34;;;14.13
64947;BMP280;51469;52.150;4.682;2024-02-28T08:29:44;102286.31;;;14.11
64947;BMP280;51469;52.150;4.682;2024-02-28T08:32:10;102296.84;;;14.24
64947;BMP280;51469;52.150;4.682;2024-02-28T08:34:36;102296.19;;;14.31
64947;BMP280;51469;52.150;4.682;2024-02-28T08:37:01;102295.44;;;14.34
64947;BMP280;51469;52.150;4.682;2024-02-28T08:39:27;102303.00;;;14.37
64947;BMP280;51469;52.150;4.682;2024-02-28T08:41:52;102288.72;;;14.54
64947;BMP280;51469;52.150;4.682;2024-02-28T08:44:17;102298.91;;;14.50
64947;BMP280;51469;52.150;4.682;2024-02-28T08:46:43;102293.50;;;14.57
64947;BMP280;51469;52.150;4.682;2024-02-28T08:49:08;102292.75;;;14.60
64947;BMP280;51469;52.150;4.682;2024-02-28T08:51:34;102290.31;;;14.55
64947;BMP280;51469;52.150;4.682;2024-02-28T08:53:59;102293.56;;;14.60
64947;BMP280;51469;52.150;4.682;2024-02-28T08:56:24;102286.59;;;14.70
64947;BMP280;51469;52.150;4.682;2024-02-28T08:58:50;102282.69;;;14.71
64947;BMP280;51469;52.150;4.682;2024-02-28T09:01:15;102297.63;;;14.67
64947;BMP280;51469;52.150;4.682;2024-02-28T09:03:41;102285.91;;;14.73
64947;BMP280;51469;52.150;4.682;2024-02-28T09:06:06;102283.53;;;14.75
64947;BMP280;51469;52.150;4.682;2024-02-28T09:08:32;102284.97;;;14.91
64947;BMP280;51469;52.150;4.682;2024-02-28T09:10:57;102285.28;;;14.83
64947;BMP280;51469;52.150;4.682;2024-02-28T09:13:23;102289.19;;;14.82
64947;BMP280;51469;52.150;4.682;2024-02-28T09:15:48;102300.50;;;14.73
64947;BMP280;51469;52.150;4.682;2024-02-28T09:18:13;102293.13;;;14.81
64947;BMP280;51469;52.150;4.682;2024-02-28T09:20:39;102293.03;;;14.74
64947;BMP280;51469;52.150;4.682;2024-02-28T09:23:04;102285.63;;;14.59
64947;BMP280;51469;52.150;4.682;2024-02-28T09:25:30;102288.34;;;14.78
64947;BMP280;51469;52.150;4.682;2024-02-28T09:27:57;102287.28;;;14.86
64947;BMP280;51469;52.150;4.682;2024-02-28T09:30:25;102290.47;;;14.88
64947;BMP280;51469;52.150;4.682;2024-02-28T09:32:50;102302.19;;;15.04
64947;BMP280;51469;52.150;4.682;2024-02-28T09:35:15;102300.38;;;14.89
64947;BMP280;51469;52.150;4.682;2024-02-28T09:37:41;102302.81;;;14.94
64947;BMP280;51469;52.150;4.682;2024-02-28T09:40:09;102304.53;;;15.02
64947;BMP280;51469;52.150;4.682;2024-02-28T09:42:35;102305.63;;;14.75
64947;BMP280;51469;52.150;4.682;2024-02-28T09:45:01;102299.84;;;15.06
64947;BMP280;51469;52.150;4.682;2024-02-28T09:47:26;102300.13;;;15.24
64947;BMP280;51469;52.150;4.682;2024-02-28T09:49:53;102297.34;;;15.53
64947;BMP280;51469;52.150;4.682;2024-02-28T09:52:20;102298.44;;;15.45
64947;BMP280;51469;52.150;4.682;2024-02-28T09:54:45;102297.34;;;15.53
64947;BMP280;51469;52.150;4.682;2024-02-28T09:57:11;102290.00;;;15.35
64947;BMP280;51469;52.150;4.682;2024-02-28T09:59:37;102291.25;;;15.70
64947;BMP280;51469;52.150;4.682;2024-02-28T10:02:04;102290.66;;;15.87
64947;BMP280;51469;52.150;4.682;2024-02-28T10:04:32;102284.09;;;16.02
64947;BMP280;51469;52.150;4.682;2024-02-28T10:07:10;102287.28;;;15.38
64947;BMP280;51469;52.150;4.682;2024-02-28T10:09:37;102285.81;;;15.81
64947;BMP280;51469;52.150;4.682;2024-02-28T10:12:03;102272.78;;;16.14
64947;BMP280;51469;52.150;4.682;2024-02-28T10:14:34;102283.63;;;16.30
64947;BMP280;51469;52.150;4.682;2024-02-28T10:17:00;102274.69;;;16.50
64947;BMP280;51469;52.150;4.682;2024-02-28T10:19:25;102288.72;;;16.28
64947;BMP280;51469;52.150;4.682;2024-02-28T10:21:51;102286.72;;;16.28
64947;BMP280;51469;52.150;4.682;2024-02-28T10:24:17;102280.38;;;16.24
64947;BMP280;51469;52.150;4.682;2024-02-28T10:26:47;102273.41;;;16.01
64947;BMP280;51469;52.150;4.682;2024-02-28T10:29:22;102284.53;;;16.44
64947;BMP280;51469;52.150;4.682;2024-02-28T10:31:51;102278.38;;;16.68
64947;BMP280;51469;52.150;4.682;2024-02-28T10:34:17;102285.94;;;16.71
64947;BMP280;51469;52.150;4.682;2024-02-28T10:36:44;102282.56;;;16.48
64947;BMP280;51469;52.150;4.682;2024-02-28T10:39:11;102280.19;;;16.97
64947;BMP280;51469;52.150;4.682;2024-02-28T10:41:38;102287.47;;;16.65
64947;BMP280;51469;52.150;4.682;2024-02-28T10:44:03;102291.78;;;16.59
64947;BMP280;51469;52.150;4.682;2024-02-28T10:46:30;102286.69;;;16.68
64947;BMP280;51469;52.150;4.682;2024-02-28T10:48:58;102279.69;;;16.81
64947;BMP280;51469;52.150;4.682;2024-02-28T10:51:24;102283.69;;;16.87
64947;BMP280;51469;52.150;4.682;2024-02-28T10:54:09;102290.59;;;16.60
64947;BMP280;51469;52.150;4.682;2024-02-28T10:56:39;102297.34;;;16.63
64947;BMP280;51469;52.150;4.682;2024-02-28T10:59:09;102288.41;;;16.83
64947;BMP280;51469;52.150;4.682;2024-02-28T11:01:40;102287.41;;;16.58
64947;BMP280;51469;52.150;4.682;2024-02-28T11:04:09;102286.59;;;16.54
64947;BMP280;51469;52.150;4.682;2024-02-28T11:06:35;102286.69;;;16.68
64947;BMP280;51469;52.150;4.682;2024-02-28T11:09:00;102285.34;;;16.95
64947;BMP280;51469;52.150;4.682;2024-02-28T11:11:31;102289.69;;;16.96
64947;BMP280;51469;52.150;4.682;2024-02-28T11:13:58;102287.81;;;17.14
64947;BMP280;51469;52.150;4.682;2024-02-28T11:16:33;102285.81;;;16.57
64947;BMP280;51469;52.150;4.682;2024-02-28T11:19:00;102275.22;;;16.66
64947;BMP280;51469;52.150;4.682;2024-02-28T11:21:27;102267.88;;;16.91
64947;BMP280;51469;52.150;4.682;2024-02-28T11:24:01;102266.78;;;16.52
64947;BMP280;51469;52.150;4.682;2024-02-28T11:26:28;102262.34;;;16.91
64947;BMP280;51469;52.150;4.682;2024-02-28T11:28:57;102271.09;;;16.97
64947;BMP280;51469;52.150;4.682;2024-02-28T11:31:22;102262.91;;;17.21
64947;BMP280;51469;52.150;4.682;2024-02-28T11:33:48;102265.25;;;17.19
64947;BMP280;51469;52.150;4.682;2024-02-28T11:36:14;102259.41;;;17.31
64947;BMP280;51469;52.150;4.682;2024-02-28T11:38:40;102260.94;;;17.32
64947;BMP280;51469;52.150;4.682;2024-02-28T11:41:06;102264.59;;;16.75
64947;BMP280;51469;52.150;4.682;2024-02-28T11:43:32;102265.63;;;17.14
64947;BMP280;51469;52.150;4.682;2024-02-28T11:45:58;102255.09;;;17.44
64947;BMP280;51469;52.150;4.682;2024-02-28T11:48:24;102257.47;;;17.49
64947;BMP280;51469;52.150;4.682;2024-02-28T11:50:50;102262.06;;;17.17
64947;BMP280;51469;52.150;4.682;2024-02-28T11:53:16;102255.78;;;17.17
64947;BMP280;51469;52.150;4.682;2024-02-28T11:55:42;102255.41;;;17.25
64947;BMP280;51469;52.150;4.682;2024-02-28T11:58:08;102268.75;;;17.02
64947;BMP280;51469;52.150;4.682;2024-02-28T12:00:47;102259.97;;;16.93
64947;BMP280;51469;52.150;4.682;2024-02-28T12:03:13;102257.31;;;17.14
64947;BMP280;51469;52.150;4.682;2024-02-28T12:05:38;102248.31;;;17.41
64947;BMP280;51469;52.150;4.682;2024-02-28T12:08:04;102249.81;;;17.18
64947;BMP280;51469;52.150;4.682;2024-02-28T12:10:30;102257.75;;;17.20
64947;BMP280;51469;52.150;4.682;2024-02-28T12:13:00;102255.47;;;17.46
64947;BMP280;51469;52.150;4.682;2024-02-28T12:15:28;102253.88;;;17.38
64947;BMP280;51469;52.150;4.682;2024-02-28T12:17:54;102244.44;;;17.67
64947;BMP280;51469;52.150;4.682;2024-02-28T12:20:19;102242.88;;;17.69
64947;BMP280;51469;52.150;4.682;2024-02-28T12:22:45;102236.53;;;17.69
64947;BMP280;51469;52.150;4.682;2024-02-28T12:25:13;102241.22;;;17.44
64947;BMP280;51469;52.150;4.682;2024-02-28T12:27:38;102242.81;;;17.48
64947;BMP280;51469;52.150;4.682;2024-02-28T12:30:04;102241.13;;;17.23
64947;BMP280;51469;52.150;4.682;2024-02-28T12:32:29;102233.25;;;17.39
64947;BMP280;51469;52.150;4.682;2024-02-28T12:34:55;102231.00;;;17.69
64947;BMP280;51469;52.150;4.682;2024-02-28T12:37:20;102229.38;;;17.71
64947;BMP280;51469;52.150;4.682;2024-02-28T12:39:45;102215.47;;;17.54
64947;BMP280;51469;52.150;4.682;2024-02-28T12:42:12;102226.59;;;17.61
64947;BMP280;51469;52.150;4.682;2024-02-28T12:44:38;102221.41;;;17.56
64947;BMP280;51469;52.150;4.682;2024-02-28T12:47:05;102231.75;;;17.59
64947;BMP280;51469;52.150;4.682;2024-02-28T12:49:31;102233.78;;;17.73
64947;BMP280;51469;52.150;4.682;2024-02-28T12:51:56;102238.44;;;17.44
64947;BMP280;51469;52.150;4.682;2024-02-28T12:54:22;102238.88;;;17.50
64947;BMP280;51469;52.150;4.682;2024-02-28T12:56:47;102243.63;;;17.63
64947;BMP280;51469;52.150;4.682;2024-02-28T12:59:13;102236.88;;;17.53
64947;BMP280;51469;52.150;4.682;2024-02-28T13:01:38;102235.66;;;17.51
64947;BMP280;51469;52.150;4.682;2024-02-28T13:04:04;102237.03;;;17.00
64947;BMP280;51469;52.150;4.682;2024-02-28T13:06:30;102241.00;;;17.02
64947;BMP280;51469;52.150;4.682;2024-02-28T13:08:55;102223.59;;;17.12
64947;BMP280;51469;52.150;4.682;2024-02-28T13:11:24;102224.44;;;17.16
64947;BMP280;51469;52.150;4.682;2024-02-28T13:13:52;102218.06;;;17.05
64947;BMP280;51469;52.150;4.682;2024-02-28T13:16:18;102217.63;;;17.03
64947;BMP280;51469;52.150;4.682;2024-02-28T13:18:47;102216.72;;;16.82
64947;BMP280;51469;52.150;4.682;2024-02-28T13:21:16;102210.66;;;16.62
64947;BMP280;51469;52.150;4.682;2024-02-28T13:23:41;102204.03;;;16.84
64947;BMP280;51469;52.150;4.682;2024-02-28T13:26:07;102200.53;;;16.94
64947;BMP280;51469;52.150;4.682;2024-02-28T13:28:33;102190.13;;;16.70
64947;BMP280;51469;52.150;4.682;2024-02-28T13:31:03;102194.75;;;16.52
64947;BMP280;51469;52.150;4.682;2024-02-28T13:33:31;102184.25;;;16.28
64947;BMP280;51469;52.150;4.682;2024-02-28T13:35:56;102164.34;;;16.12
64947;BMP280;51469;52.150;4.682;2024-02-28T13:38:21;102162.88;;;16.25
64947;BMP280;51469;52.150;4.682;2024-02-28T13:40:47;102164.88;;;16.28
64947;BMP280;51469;52.150;4.682;2024-02-28T13:43:13;102170.66;;;16.09
64947;BMP280;51469;52.150;4.682;2024-02-28T13:45:39;102174.78;;;16.26
64947;BMP280;51469;52.150;4.682;2024-02-28T13:48:18;102163.19;;;16.13
64947;BMP280;51469;52.150;4.682;2024-02-28T13:50:44;102174.88;;;16.43